sensor_id;sensor_type;location;lat;lon;timestamp;P1;durP1;ratioP1;P2;durP2;ratioP2
20044;SDS011;10183;47.808;9.476;2024-02-15T00:01:40;30.47;;;27.77;;
20044;SDS011;10183;47.808;9.476;2024-02-15T00:04:06;28.97;;;26.37;;
20044;SDS011;10183;47.808;9.476;2024-02-15T00:06:32;28.53;;;25.73;;
20044;SDS011;10183;47.808;9.476;2024-02-15T00:08:58;30.17;;;27.47;;
20044;SDS011;10183;47.808;9.476;2024-02-15T00:11:24;30.03;;;27.27;;
20044;SDS011;10183;47.808;9.476;2024-02-15T00:13:50;32.07;;;29.20;;
20044;SDS011;10183;47.808;9.476;2024-02-15T00:16:16;29.60;;;26.80;;
20044;SDS011;10183;47.808;9.476;2024-02-15T00:18:42;28.47;;;25.47;;
20044;SDS011;10183;47.808;9.476;2024-02-15T00:21:09;27.10;;;24.60;;
20044;SDS011;10183;47.808;9.476;2024-02-15T00:23:36;27.93;;;25.33;;
20044;SDS011;10183;47.808;9.476;2024-02-15T00:26:02;29.23;;;26.70;;
20044;SDS011;10183;47.808;9.476;2024-02-15T00:28:28;29.93;;;27.23;;
20044;SDS011;10183;47.808;9.476;2024-02-15T00:30:54;29.60;;;26.90;;
20044;SDS011;10183;47.808;9.476;2024-02-15T00:33:20;30.07;;;27.00;;
20044;SDS011;10183;47.808;9.476;2024-02-15T00:35:47;29.90;;;27.30;;
20044;SDS011;10183;47.808;9.476;2024-02-15T00:38:16;30.47;;;27.53;;
20044;SDS011;10183;47.808;9.476;2024-02-15T00:40:44;29.70;;;27.07;;
20044;SDS011;10183;47.808;9.476;2024-02-15T00:43:10;31.00;;;27.90;;
20044;SDS011;10183;47.808;9.476;2024-02-15T00:45:36;29.53;;;26.63;;
20044;SDS011;10183;47.808;9.476;2024-02-15T00:48:02;29.67;;;26.93;;
20044;SDS011;10183;47.808;9.476;2024-02-15T00:50:28;29.17;;;26.57;;
20044;SDS011;10183;47.808;9.476;2024-02-15T00:52:54;29.10;;;26.17;;
20044;SDS011;10183;47.808;9.476;2024-02-15T00:55:21;28.40;;;25.80;;
20044;SDS011;10183;47.808;9.476;2024-02-15T00:57:47;28.87;;;26.07;;
20044;SDS011;10183;47.808;9.476;2024-02-15T01:00:13;29.27;;;26.20;;
20044;SDS011;10183;47.808;9.476;2024-02-15T01:02:39;28.80;;;25.90;;
20044;SDS011;10183;47.808;9.476;2024-02-15T01:05:05;27.90;;;25.33;;
20044;SDS011;10183;47.808;9.476;2024-02-15T01:07:31;29.00;;;26.23;;
20044;SDS011;10183;47.808;9.476;2024-02-15T01:09:58;28.93;;;26.10;;
20044;SDS011;10183;47.808;9.476;2024-02-15T01:12:24;29.70;;;26.70;;
20044;SDS011;10183;47.808;9.476;2024-02-15T01:14:50;28.80;;;25.80;;
20044;SDS011;10183;47.808;9.476;2024-02-15T01:17:16;27.67;;;25.17;;
20044;SDS011;10183;47.808;9.476;2024-02-15T01:19:42;29.80;;;26.90;;
20044;SDS011;10183;47.808;9.476;2024-02-15T01:22:08;29.37;;;26.53;;
20044;SDS011;10183;47.808;9.476;2024-02-15T01:24:34;28.37;;;25.67;;
20044;SDS011;10183;47.808;9.476;2024-02-15T01:27:01;27.90;;;25.20;;
20044;SDS011;10183;47.808;9.476;2024-02-15T01:29:26;27.47;;;24.77;;
20044;SDS011;10183;47.808;9.476;2024-02-15T01:31:52;28.03;;;25.13;;
20044;SDS011;10183;47.808;9.476;2024-02-15T01:34:18;29.13;;;26.20;;
20044;SDS011;10183;47.808;9.476;2024-02-15T01:36:47;29.40;;;26.60;;
20044;SDS011;10183;47.808;9.476;2024-02-15T01:39:14;30.83;;;27.93;;
20044;SDS011;10183;47.808;9.476;2024-02-15T01:41:40;30.43;;;27.43;;
20044;SDS011;10183;47.808;9.476;2024-02-15T01:44:06;28.53;;;25.73;;
20044;SDS011;10183;47.808;9.476;2024-02-15T01:46:32;27.70;;;24.90;;
20044;SDS011;10183;47.808;9.476;2024-02-15T01:48:59;29.00;;;26.17;;
20044;SDS011;10183;47.808;9.476;2024-02-15T01:51:25;29.47;;;26.53;;
20044;SDS011;10183;47.808;9.476;2024-02-15T01:53:52;29.77;;;26.93;;
20044;SDS011;10183;47.808;9.476;2024-02-15T01:56:19;28.47;;;25.57;;
20044;SDS011;10183;47.808;9.476;2024-02-15T01:58:45;29.70;;;26.87;;
20044;SDS011;10183;47.808;9.476;2024-02-15T02:01:11;29.47;;;26.63;;
20044;SDS011;10183;47.808;9.476;2024-02-15T02:03:38;29.03;;;26.33;;
20044;SDS011;10183;47.808;9.476;2024-02-15T02:06:05;29.83;;;27.20;;
20044;SDS011;10183;47.808;9.476;2024-02-15T02:08:31;29.00;;;26.40;;
20044;SDS011;10183;47.808;9.476;2024-02-15T02:10:57;29.30;;;26.43;;
20044;SDS011;10183;47.808;9.476;2024-02-15T02:13:23;28.87;;;25.97;;
20044;SDS011;10183;47.808;9.476;2024-02-15T02:15:49;29.67;;;26.77;;
20044;SDS011;10183;47.808;9.476;2024-02-15T02:18:16;31.10;;;28.10;;
20044;SDS011;10183;47.808;9.476;2024-02-15T02:20:42;29.80;;;26.90;;
20044;SDS011;10183;47.808;9.476;2024-02-15T02:23:15;29.13;;;26.43;;
20044;SDS011;10183;47.808;9.476;2024-02-15T02:25:41;29.60;;;26.90;;
20044;SDS011;10183;47.808;9.476;2024-02-15T02:28:08;29.77;;;27.00;;
20044;SDS011;10183;47.808;9.476;2024-02-15T02:30:34;28.83;;;25.93;;
20044;SDS011;10183;47.808;9.476;2024-02-15T02:33:00;30.47;;;27.67;;
20044;SDS011;10183;47.808;9.476;2024-02-15T02:35:26;29.63;;;26.93;;
20044;SDS011;10183;47.808;9.476;2024-02-15T02:37:54;31.47;;;28.47;;
20044;SDS011;10183;47.808;9.476;2024-02-15T02:40:21;31.90;;;28.77;;
20044;SDS011;10183;47.808;9.476;2024-02-15T02:42:54;31.10;;;28.27;;
20044;SDS011;10183;47.808;9.476;2024-02-15T02:45:26;30.13;;;27.33;;
20044;SDS011;10183;47.808;9.476;2024-02-15T02:47:53;30.67;;;27.70;;
20044;SDS011;10183;47.808;9.476;2024-02-15T02:50:19;29.73;;;26.83;;
20044;SDS011;10183;47.808;9.476;2024-02-15T02:52:46;27.37;;;24.80;;
20044;SDS011;10183;47.808;9.476;2024-02-15T02:55:13;28.43;;;25.63;;
20044;SDS011;10183;47.808;9.476;2024-02-15T02:57:39;29.10;;;26.20;;
20044;SDS011;10183;47.808;9.476;2024-02-15T03:00:10;28.77;;;25.70;;
20044;SDS011;10183;47.808;9.476;2024-02-15T03:02:43;29.27;;;26.33;;
20044;SDS011;10183;47.808;9.476;2024-02-15T03:05:09;27.40;;;24.80;;
20044;SDS011;10183;47.808;9.476;2024-02-15T03:07:36;27.30;;;24.50;;
20044;SDS011;10183;47.808;9.476;2024-02-15T03:10:03;25.90;;;23.43;;
20044;SDS011;10183;47.808;9.476;2024-02-15T03:12:29;27.00;;;24.40;;
20044;SDS011;10183;47.808;9.476;2024-02-15T03:14:55;26.40;;;23.63;;
20044;SDS011;10183;47.808;9.476;2024-02-15T03:17:24;26.60;;;24.00;;
20044;SDS011;10183;47.808;9.476;2024-02-15T03:19:51;27.07;;;24.40;;
20044;SDS011;10183;47.808;9.476;2024-02-15T03:22:17;27.67;;;24.70;;
20044;SDS011;10183;47.808;9.476;2024-02-15T03:24:43;26.63;;;24.03;;
20044;SDS011;10183;47.808;9.476;2024-02-15T03:27:09;27.10;;;24.40;;
20044;SDS011;10183;47.808;9.476;2024-02-15T03:29:35;27.13;;;24.33;;
20044;SDS011;10183;47.808;9.476;2024-02-15T03:32:02;26.50;;;23.77;;
20044;SDS011;10183;47.808;9.476;2024-02-15T03:34:29;27.00;;;24.30;;
20044;SDS011;10183;47.808;9.476;2024-02-15T03:36:56;26.53;;;24.03;;
20044;SDS011;10183;47.808;9.476;2024-02-15T03:39:22;26.83;;;24.17;;
20044;SDS011;10183;47.808;9.476;2024-02-15T03:41:48;26.40;;;23.83;;
20044;SDS011;10183;47.808;9.476;2024-02-15T03:44:15;27.33;;;24.53;;
20044;SDS011;10183;47.808;9.476;2024-02-15T03:46:43;26.30;;;23.37;;
20044;SDS011;10183;47.808;9.476;2024-02-15T03:49:15;26.93;;;24.53;;
20044;SDS011;10183;47.808;9.476;2024-02-15T03:51:42;26.90;;;23.97;;
20044;SDS011;10183;47.808;9.476;2024-02-15T03:54:09;27.93;;;23.63;;
20044;SDS011;10183;47.808;9.476;2024-02-15T03:56:35;25.17;;;22.87;;
20044;SDS011;10183;47.808;9.476;2024-02-15T03:59:02;24.50;;;22.10;;
20044;SDS011;10183;47.808;9.476;2024-02-15T04:01:30;24.57;;;22.17;;
20044;SDS011;10183;47.808;9.476;2024-02-15T04:03:59;25.33;;;22.53;;
20044;SDS011;10183;47.808;9.476;2024-02-15T04:06:27;25.07;;;22.57;;
20044;SDS011;10183;47.808;9.476;2024-02-15T04:08:55;25.20;;;22.60;;
20044;SDS011;10183;47.808;9.476;2024-02-15T04:11:21;24.70;;;22.30;;
20044;SDS011;10183;47.808;9.476;2024-02-15T04:13:47;25.63;;;22.83;;
20044;SDS011;10183;47.808;9.476;2024-02-15T04:16:13;25.47;;;22.97;;
20044;SDS011;10183;47.808;9.476;2024-02-15T04:18:41;25.70;;;23.27;;
20044;SDS011;10183;47.808;9.476;2024-02-15T04:21:10;25.27;;;22.57;;
20044;SDS011;10183;47.808;9.476;2024-02-15T04:23:36;26.17;;;22.33;;
20044;SDS011;10183;47.808;9.476;2024-02-15T04:26:02;24.70;;;22.23;;
20044;SDS011;10183;47.808;9.476;2024-02-15T04:28:28;25.43;;;23.10;;
20044;SDS011;10183;47.808;9.476;2024-02-15T04:30:54;25.70;;;23.20;;
20044;SDS011;10183;47.808;9.476;2024-02-15T04:33:20;24.73;;;22.43;;
20044;SDS011;10183;47.808;9.476;2024-02-15T04:35:47;24.67;;;22.27;;
20044;SDS011;10183;47.808;9.476;2024-02-15T04:38:15;34.97;;;31.90;;
20044;SDS011;10183;47.808;9.476;2024-02-15T04:40:41;25.90;;;23.20;;
20044;SDS011;10183;47.808;9.476;2024-02-15T04:43:07;23.97;;;21.67;;
20044;SDS011;10183;47.808;9.476;2024-02-15T04:45:34;25.67;;;23.27;;
20044;SDS011;10183;47.808;9.476;2024-02-15T04:48:00;25.47;;;22.80;;
20044;SDS011;10183;47.808;9.476;2024-02-15T04:50:27;26.70;;;24.17;;
20044;SDS011;10183;47.808;9.476;2024-02-15T04:52:54;25.73;;;23.23;;
20044;SDS011;10183;47.808;9.476;2024-02-15T04:55:20;25.87;;;23.37;;
20044;SDS011;10183;47.808;9.476;2024-02-15T04:57:47;25.63;;;23.23;;
20044;SDS011;10183;47.808;9.476;2024-02-15T05:00:14;25.83;;;23.30;;
20044;SDS011;10183;47.808;9.476;2024-02-15T05:02:40;25.60;;;22.90;;
20044;SDS011;10183;47.808;9.476;2024-02-15T05:05:08;24.77;;;22.27;;
20044;SDS011;10183;47.808;9.476;2024-02-15T05:07:34;25.60;;;23.00;;
20044;SDS011;10183;47.808;9.476;2024-02-15T05:10:05;34.47;;;28.00;;
20044;SDS011;10183;47.808;9.476;2024-02-15T05:12:34;26.37;;;23.47;;
20044;SDS011;10183;47.808;9.476;2024-02-15T05:15:01;28.00;;;23.97;;
20044;SDS011;10183;47.808;9.476;2024-02-15T05:17:35;27.47;;;24.57;;
20044;SDS011;10183;47.808;9.476;2024-02-15T05:20:01;27.33;;;23.77;;
20044;SDS011;10183;47.808;9.476;2024-02-15T05:22:36;29.73;;;25.53;;
20044;SDS011;10183;47.808;9.476;2024-02-15T05:25:04;39.07;;;29.17;;
20044;SDS011;10183;47.808;9.476;2024-02-15T05:27:30;48.63;;;31.13;;
20044;SDS011;10183;47.808;9.476;2024-02-15T05:29:56;31.03;;;27.50;;
20044;SDS011;10183;47.808;9.476;2024-02-15T05:32:22;32.23;;;26.57;;
20044;SDS011;10183;47.808;9.476;2024-02-15T05:34:49;35.20;;;27.30;;
20044;SDS011;10183;47.808;9.476;2024-02-15T05:37:15;27.60;;;24.60;;
20044;SDS011;10183;47.808;9.476;2024-02-15T05:39:41;27.50;;;24.70;;
20044;SDS011;10183;47.808;9.476;2024-02-15T05:42:08;26.23;;;23.53;;
20044;SDS011;10183;47.808;9.476;2024-02-15T05:44:35;26.50;;;22.67;;
20044;SDS011;10183;47.808;9.476;2024-02-15T05:47:01;25.30;;;22.00;;
20044;SDS011;10183;47.808;9.476;2024-02-15T05:49:27;27.20;;;21.67;;
20044;SDS011;10183;47.808;9.476;2024-02-15T05:51:53;24.10;;;21.80;;
20044;SDS011;10183;47.808;9.476;2024-02-15T05:54:19;25.20;;;22.70;;
20044;SDS011;10183;47.808;9.476;2024-02-15T05:56:47;41.03;;;32.17;;
20044;SDS011;10183;47.808;9.476;2024-02-15T05:59:16;70.10;;;49.40;;
20044;SDS011;10183;47.808;9.476;2024-02-15T06:01:45;42.43;;;32.93;;
20044;SDS011;10183;47.808;9.476;2024-02-15T06:04:13;30.67;;;26.93;;
20044;SDS011;10183;47.808;9.476;2024-02-15T06:06:39;37.83;;;33.97;;
20044;SDS011;10183;47.808;9.476;2024-02-15T06:09:05;26.77;;;24.07;;
20044;SDS011;10183;47.808;9.476;2024-02-15T06:11:31;29.17;;;26.00;;
20044;SDS011;10183;47.808;9.476;2024-02-15T06:13:57;27.70;;;23.33;;
20044;SDS011;10183;47.808;9.476;2024-02-15T06:16:23;25.90;;;23.50;;
20044;SDS011;10183;47.808;9.476;2024-02-15T06:18:49;40.83;;;37.27;;
20044;SDS011;10183;47.808;9.476;2024-02-15T06:21:15;33.87;;;30.67;;
20044;SDS011;10183;47.808;9.476;2024-02-15T06:23:43;33.80;;;30.50;;
20044;SDS011;10183;47.808;9.476;2024-02-15T06:26:09;34.10;;;30.80;;
20044;SDS011;10183;47.808;9.476;2024-02-15T06:28:36;32.17;;;29.23;;
20044;SDS011;10183;47.808;9.476;2024-02-15T06:31:21;30.63;;;27.43;;
20044;SDS011;10183;47.808;9.476;2024-02-15T06:34:05;30.10;;;26.53;;
20044;SDS011;10183;47.808;9.476;2024-02-15T06:36:52;27.37;;;24.43;;
20044;SDS011;10183;47.808;9.476;2024-02-15T06:39:37;28.47;;;25.03;;
20044;SDS011;10183;47.808;9.476;2024-02-15T06:42:05;29.03;;;23.97;;
20044;SDS011;10183;47.808;9.476;2024-02-15T06:44:31;26.87;;;23.87;;
20044;SDS011;10183;47.808;9.476;2024-02-15T06:46:58;35.77;;;28.03;;
20044;SDS011;10183;47.808;9.476;2024-02-15T06:49:24;32.77;;;25.57;;
20044;SDS011;10183;47.808;9.476;2024-02-15T06:51:50;32.73;;;27.73;;
20044;SDS011;10183;47.808;9.476;2024-02-15T06:54:17;36.37;;;29.00;;
20044;SDS011;10183;47.808;9.476;2024-02-15T06:56:46;42.63;;;30.90;;
20044;SDS011;10183;47.808;9.476;2024-02-15T06:59:13;40.40;;;32.63;;
20044;SDS011;10183;47.808;9.476;2024-02-15T07:01:42;41.40;;;31.27;;
20044;SDS011;10183;47.808;9.476;2024-02-15T07:04:09;57.37;;;36.87;;
20044;SDS011;10183;47.808;9.476;2024-02-15T07:06:36;34.90;;;28.23;;
20044;SDS011;10183;47.808;9.476;2024-02-15T07:09:02;31.20;;;27.20;;
20044;SDS011;10183;47.808;9.476;2024-02-15T07:11:29;33.57;;;25.67;;
20044;SDS011;10183;47.808;9.476;2024-02-15T07:13:55;28.17;;;24.73;;
20044;SDS011;10183;47.808;9.476;2024-02-15T07:16:22;30.20;;;24.43;;
20044;SDS011;10183;47.808;9.476;2024-02-15T07:18:48;33.30;;;25.97;;
20044;SDS011;10183;47.808;9.476;2024-02-15T07:21:15;28.57;;;23.33;;
20044;SDS011;10183;47.808;9.476;2024-02-15T07:23:42;37.20;;;25.20;;
20044;SDS011;10183;47.808;9.476;2024-02-15T07:26:08;32.43;;;25.30;;
20044;SDS011;10183;47.808;9.476;2024-02-15T07:28:39;32.73;;;24.70;;
20044;SDS011;10183;47.808;9.476;2024-02-15T07:31:05;35.77;;;25.97;;
20044;SDS011;10183;47.808;9.476;2024-02-15T07:33:32;34.27;;;25.63;;
20044;SDS011;10183;47.808;9.476;2024-02-15T07:36:00;37.43;;;26.60;;
20044;SDS011;10183;47.808;9.476;2024-02-15T07:38:26;37.67;;;29.37;;
20044;SDS011;10183;47.808;9.476;2024-02-15T07:40:52;41.23;;;31.20;;
20044;SDS011;10183;47.808;9.476;2024-02-15T07:43:18;36.73;;;29.07;;
20044;SDS011;10183;47.808;9.476;2024-02-15T07:45:44;36.20;;;26.10;;
20044;SDS011;10183;47.808;9.476;2024-02-15T07:48:12;42.17;;;33.67;;
20044;SDS011;10183;47.808;9.476;2024-02-15T07:50:38;36.70;;;29.23;;
20044;SDS011;10183;47.808;9.476;2024-02-15T07:53:08;40.23;;;32.57;;
20044;SDS011;10183;47.808;9.476;2024-02-15T07:55:35;40.80;;;33.27;;
20044;SDS011;10183;47.808;9.476;2024-02-15T07:58:02;37.67;;;29.80;;
20044;SDS011;10183;47.808;9.476;2024-02-15T08:00:29;35.77;;;27.77;;
20044;SDS011;10183;47.808;9.476;2024-02-15T08:02:55;40.03;;;31.30;;
20044;SDS011;10183;47.808;9.476;2024-02-15T08:05:25;42.57;;;37.57;;
20044;SDS011;10183;47.808;9.476;2024-02-15T08:07:51;44.63;;;38.83;;
20044;SDS011;10183;47.808;9.476;2024-02-15T08:10:22;46.53;;;39.77;;
20044;SDS011;10183;47.808;9.476;2024-02-15T08:12:48;43.83;;;34.80;;
20044;SDS011;10183;47.808;9.476;2024-02-15T08:15:17;42.17;;;33.47;;
20044;SDS011;10183;47.808;9.476;2024-02-15T08:17:44;38.57;;;32.90;;
20044;SDS011;10183;47.808;9.476;2024-02-15T08:20:14;43.63;;;34.50;;
20044;SDS011;10183;47.808;9.476;2024-02-15T08:22:40;39.20;;;33.63;;
20044;SDS011;10183;47.808;9.476;2024-02-15T08:25:07;46.00;;;36.53;;
20044;SDS011;10183;47.808;9.476;2024-02-15T08:27:35;38.53;;;31.63;;
20044;SDS011;10183;47.808;9.476;2024-02-15T08:30:06;39.97;;;33.07;;
20044;SDS011;10183;47.808;9.476;2024-02-15T08:32:33;38.73;;;32.77;;
20044;SDS011;10183;47.808;9.476;2024-02-15T08:34:59;42.43;;;37.83;;
20044;SDS011;10183;47.808;9.476;2024-02-15T08:37:25;43.17;;;36.83;;
20044;SDS011;10183;47.808;9.476;2024-02-15T08:39:51;47.33;;;33.93;;
20044;SDS011;10183;47.808;9.476;2024-02-15T08:42:17;34.97;;;27.47;;
20044;SDS011;10183;47.808;9.476;2024-02-15T08:44:47;41.77;;;33.83;;
20044;SDS011;10183;47.808;9.476;2024-02-15T08:47:13;47.87;;;40.77;;
20044;SDS011;10183;47.808;9.476;2024-02-15T08:49:39;42.83;;;37.40;;
20044;SDS011;10183;47.808;9.476;2024-02-15T08:52:06;43.37;;;37.43;;
20044;SDS011;10183;47.808;9.476;2024-02-15T08:54:35;45.07;;;36.97;;
20044;SDS011;10183;47.808;9.476;2024-02-15T08:57:04;44.57;;;38.90;;
20044;SDS011;10183;47.808;9.476;2024-02-15T08:59:30;61.37;;;51.63;;
20044;SDS011;10183;47.808;9.476;2024-02-15T09:01:56;65.40;;;58.30;;
20044;SDS011;10183;47.808;9.476;2024-02-15T09:04:22;40.83;;;36.40;;
20044;SDS011;10183;47.808;9.476;2024-02-15T09:06:51;48.00;;;39.63;;
20044;SDS011;10183;47.808;9.476;2024-02-15T09:09:17;43.20;;;38.50;;
20044;SDS011;10183;47.808;9.476;2024-02-15T09:11:43;48.57;;;43.37;;
20044;SDS011;10183;47.808;9.476;2024-02-15T09:14:09;42.27;;;36.83;;
20044;SDS011;10183;47.808;9.476;2024-02-15T09:16:35;42.07;;;37.60;;
20044;SDS011;10183;47.808;9.476;2024-02-15T09:19:01;48.50;;;43.40;;
20044;SDS011;10183;47.808;9.476;2024-02-15T09:21:27;43.43;;;37.87;;
20044;SDS011;10183;47.808;9.476;2024-02-15T09:23:54;46.77;;;41.67;;
20044;SDS011;10183;47.808;9.476;2024-02-15T09:26:21;53.07;;;47.47;;
20044;SDS011;10183;47.808;9.476;2024-02-15T09:28:47;45.77;;;39.47;;
20044;SDS011;10183;47.808;9.476;2024-02-15T09:31:13;41.50;;;34.73;;
20044;SDS011;10183;47.808;9.476;2024-02-15T09:33:39;43.60;;;36.07;;
20044;SDS011;10183;47.808;9.476;2024-02-15T09:36:06;43.73;;;37.80;;
20044;SDS011;10183;47.808;9.476;2024-02-15T09:38:32;44.13;;;39.40;;
20044;SDS011;10183;47.808;9.476;2024-02-15T09:40:58;43.50;;;38.10;;
20044;SDS011;10183;47.808;9.476;2024-02-15T09:43:24;44.97;;;40.07;;
20044;SDS011;10183;47.808;9.476;2024-02-15T09:45:51;40.40;;;34.90;;
20044;SDS011;10183;47.808;9.476;2024-02-15T09:48:18;41.27;;;35.90;;
20044;SDS011;10183;47.808;9.476;2024-02-15T09:50:46;48.33;;;43.40;;
20044;SDS011;10183;47.808;9.476;2024-02-15T09:53:13;48.87;;;34.33;;
20044;SDS011;10183;47.808;9.476;2024-02-15T09:55:40;44.57;;;37.33;;
20044;SDS011;10183;47.808;9.476;2024-02-15T09:58:09;44.13;;;35.67;;
20044;SDS011;10183;47.808;9.476;2024-02-15T10:00:37;42.37;;;36.60;;
20044;SDS011;10183;47.808;9.476;2024-02-15T10:03:05;52.27;;;46.97;;
20044;SDS011;10183;47.808;9.476;2024-02-15T10:05:34;46.27;;;41.27;;
20044;SDS011;10183;47.808;9.476;2024-02-15T10:08:00;47.83;;;42.77;;
20044;SDS011;10183;47.808;9.476;2024-02-15T10:10:26;54.07;;;48.23;;
20044;SDS011;10183;47.808;9.476;2024-02-15T10:12:53;50.00;;;44.70;;
20044;SDS011;10183;47.808;9.476;2024-02-15T10:15:29;47.93;;;42.73;;
20044;SDS011;10183;47.808;9.476;2024-02-15T10:17:56;50.93;;;45.53;;
20044;SDS011;10183;47.808;9.476;2024-02-15T10:20:23;44.90;;;39.70;;
20044;SDS011;10183;47.808;9.476;2024-02-15T10:22:53;43.50;;;38.90;;
20044;SDS011;10183;47.808;9.476;2024-02-15T10:25:20;44.83;;;40.00;;
20044;SDS011;10183;47.808;9.476;2024-02-15T10:27:47;50.40;;;45.07;;
20044;SDS011;10183;47.808;9.476;2024-02-15T10:30:14;45.37;;;40.37;;
20044;SDS011;10183;47.808;9.476;2024-02-15T10:32:40;46.70;;;41.73;;
20044;SDS011;10183;47.808;9.476;2024-02-15T10:35:07;44.57;;;39.40;;
20044;SDS011;10183;47.808;9.476;2024-02-15T10:37:33;44.60;;;39.70;;
20044;SDS011;10183;47.808;9.476;2024-02-15T10:40:05;48.70;;;43.13;;
20044;SDS011;10183;47.808;9.476;2024-02-15T10:42:32;54.78;;;48.92;;
20044;SDS011;10183;47.808;9.476;2024-02-15T10:45:04;56.90;;;50.78;;
20044;SDS011;10183;47.808;9.476;2024-02-15T10:47:31;37.53;;;29.52;;
20044;SDS011;10183;47.808;9.476;2024-02-15T10:49:57;36.17;;;32.25;;
20044;SDS011;10183;47.808;9.476;2024-02-15T10:52:24;34.47;;;28.77;;
20044;SDS011;10183;47.808;9.476;2024-02-15T10:55:04;34.00;;;25.73;;
20044;SDS011;10183;47.808;9.476;2024-02-15T10:57:34;30.50;;;23.17;;
20044;SDS011;10183;47.808;9.476;2024-02-15T11:00:04;31.20;;;27.90;;
20044;SDS011;10183;47.808;9.476;2024-02-15T11:03:07;42.08;;;36.85;;
20044;SDS011;10183;47.808;9.476;2024-02-15T11:05:32;42.38;;;38.15;;
20044;SDS011;10183;47.808;9.476;2024-02-15T11:07:59;42.85;;;38.35;;
20044;SDS011;10183;47.808;9.476;2024-02-15T11:10:27;39.60;;;35.45;;
20044;SDS011;10183;47.808;9.476;2024-02-15T11:12:53;39.55;;;33.05;;
20044;SDS011;10183;47.808;9.476;2024-02-15T11:18:58;39.95;;;35.75;;
20044;SDS011;10183;47.808;9.476;2024-02-15T11:21:05;40.17;;;36.08;;
20044;SDS011;10183;47.808;9.476;2024-02-15T11:23:31;36.38;;;31.45;;
20044;SDS011;10183;47.808;9.476;2024-02-15T11:25:57;44.70;;;40.13;;
20044;SDS011;10183;47.808;9.476;2024-02-15T11:30:52;48.33;;;41.38;;
20044;SDS011;10183;47.808;9.476;2024-02-15T11:33:28;74.93;;;60.50;;
20044;SDS011;10183;47.808;9.476;2024-02-15T11:36:09;60.95;;;50.92;;
20044;SDS011;10183;47.808;9.476;2024-02-15T11:38:36;64.78;;;53.50;;
20044;SDS011;10183;47.808;9.476;2024-02-15T11:41:05;55.63;;;49.55;;
20044;SDS011;10183;47.808;9.476;2024-02-15T11:46:16;67.50;;;51.90;;
20044;SDS011;10183;47.808;9.476;2024-02-15T11:48:45;74.60;;;57.22;;
20044;SDS011;10183;47.808;9.476;2024-02-15T11:54:01;55.38;;;47.95;;
20044;SDS011;10183;47.808;9.476;2024-02-15T11:56:30;65.97;;;55.60;;
20044;SDS011;10183;47.808;9.476;2024-02-15T11:59:04;65.05;;;55.63;;
20044;SDS011;10183;47.808;9.476;2024-02-15T12:01:35;51.03;;;45.63;;
20044;SDS011;10183;47.808;9.476;2024-02-15T12:04:21;40.53;;;36.30;;
20044;SDS011;10183;47.808;9.476;2024-02-15T12:07:05;49.80;;;41.92;;
20044;SDS011;10183;47.808;9.476;2024-02-15T12:09:51;50.75;;;45.25;;
20044;SDS011;10183;47.808;9.476;2024-02-15T12:12:50;45.10;;;37.88;;
20044;SDS011;10183;47.808;9.476;2024-02-15T12:15:34;39.22;;;32.25;;
20044;SDS011;10183;47.808;9.476;2024-02-15T12:18:19;44.15;;;38.25;;
20044;SDS011;10183;47.808;9.476;2024-02-15T12:21:07;44.25;;;35.78;;
20044;SDS011;10183;47.808;9.476;2024-02-15T12:23:34;39.47;;;32.67;;
20044;SDS011;10183;47.808;9.476;2024-02-15T12:26:01;41.97;;;35.85;;
20044;SDS011;10183;47.808;9.476;2024-02-15T12:28:30;42.50;;;34.67;;
20044;SDS011;10183;47.808;9.476;2024-02-15T12:30:56;41.50;;;37.00;;
20044;SDS011;10183;47.808;9.476;2024-02-15T12:33:23;39.00;;;31.00;;
20044;SDS011;10183;47.808;9.476;2024-02-15T12:35:49;40.42;;;33.65;;
20044;SDS011;10183;47.808;9.476;2024-02-15T12:38:16;37.30;;;30.25;;
20044;SDS011;10183;47.808;9.476;2024-02-15T12:40:42;39.00;;;33.83;;
20044;SDS011;10183;47.808;9.476;2024-02-15T12:43:11;40.30;;;34.60;;
20044;SDS011;10183;47.808;9.476;2024-02-15T12:45:40;38.88;;;32.65;;
20044;SDS011;10183;47.808;9.476;2024-02-15T12:48:07;44.70;;;39.50;;
20044;SDS011;10183;47.808;9.476;2024-02-15T12:50:34;42.03;;;37.42;;
20044;SDS011;10183;47.808;9.476;2024-02-15T12:53:00;37.03;;;31.27;;
20044;SDS011;10183;47.808;9.476;2024-02-15T12:55:37;38.63;;;34.45;;
20044;SDS011;10183;47.808;9.476;2024-02-15T12:58:05;39.72;;;35.63;;
20044;SDS011;10183;47.808;9.476;2024-02-15T13:00:34;40.70;;;33.40;;
20044;SDS011;10183;47.808;9.476;2024-02-15T13:03:07;42.03;;;37.00;;
20044;SDS011;10183;47.808;9.476;2024-02-15T13:05:36;48.92;;;43.78;;
20044;SDS011;10183;47.808;9.476;2024-02-15T13:08:03;34.65;;;27.45;;
20044;SDS011;10183;47.808;9.476;2024-02-15T13:10:35;33.97;;;30.27;;
20044;SDS011;10183;47.808;9.476;2024-02-15T13:13:04;40.78;;;36.38;;
20044;SDS011;10183;47.808;9.476;2024-02-15T13:15:31;39.33;;;35.10;;
20044;SDS011;10183;47.808;9.476;2024-02-15T13:18:01;36.22;;;31.08;;
20044;SDS011;10183;47.808;9.476;2024-02-15T13:20:30;39.40;;;35.30;;
20044;SDS011;10183;47.808;9.476;2024-02-15T13:23:03;37.53;;;33.05;;
20044;SDS011;10183;47.808;9.476;2024-02-15T13:25:34;38.75;;;34.63;;
20044;SDS011;10183;47.808;9.476;2024-02-15T13:28:01;44.60;;;39.88;;
20044;SDS011;10183;47.808;9.476;2024-02-15T13:30:29;39.38;;;33.47;;
20044;SDS011;10183;47.808;9.476;2024-02-15T13:32:55;43.35;;;38.95;;
20044;SDS011;10183;47.808;9.476;2024-02-15T13:35:22;38.75;;;32.78;;
20044;SDS011;10183;47.808;9.476;2024-02-15T13:37:52;37.05;;;32.65;;
20044;SDS011;10183;47.808;9.476;2024-02-15T13:40:19;36.92;;;33.33;;
20044;SDS011;10183;47.808;9.476;2024-02-15T13:42:48;33.42;;;30.02;;
20044;SDS011;10183;47.808;9.476;2024-02-15T13:45:17;32.75;;;29.35;;
20044;SDS011;10183;47.808;9.476;2024-02-15T13:47:44;34.33;;;31.02;;
20044;SDS011;10183;47.808;9.476;2024-02-15T13:50:12;31.52;;;28.13;;
20044;SDS011;10183;47.808;9.476;2024-02-15T13:52:42;97.85;;;48.38;;
20044;SDS011;10183;47.808;9.476;2024-02-15T13:55:14;65.65;;;49.47;;
20044;SDS011;10183;47.808;9.476;2024-02-15T13:57:41;46.28;;;41.28;;
20044;SDS011;10183;47.808;9.476;2024-02-15T14:00:08;42.28;;;37.88;;
20044;SDS011;10183;47.808;9.476;2024-02-15T14:02:49;45.10;;;40.45;;
20044;SDS011;10183;47.808;9.476;2024-02-15T14:05:16;42.83;;;38.40;;
20044;SDS011;10183;47.808;9.476;2024-02-15T14:07:48;47.53;;;42.63;;
20044;SDS011;10183;47.808;9.476;2024-02-15T14:10:15;46.72;;;41.92;;
20044;SDS011;10183;47.808;9.476;2024-02-15T14:12:43;42.47;;;38.08;;
20044;SDS011;10183;47.808;9.476;2024-02-15T14:15:10;41.03;;;36.58;;
20044;SDS011;10183;47.808;9.476;2024-02-15T14:17:37;42.63;;;38.25;;
20044;SDS011;10183;47.808;9.476;2024-02-15T14:20:03;47.15;;;42.22;;
20044;SDS011;10183;47.808;9.476;2024-02-15T14:22:33;42.42;;;36.60;;
20044;SDS011;10183;47.808;9.476;2024-02-15T14:24:59;40.70;;;36.17;;
20044;SDS011;10183;47.808;9.476;2024-02-15T14:27:25;41.50;;;37.22;;
20044;SDS011;10183;47.808;9.476;2024-02-15T14:29:52;41.42;;;37.33;;
20044;SDS011;10183;47.808;9.476;2024-02-15T14:32:36;41.50;;;37.42;;
20044;SDS011;10183;47.808;9.476;2024-02-15T14:35:21;42.83;;;38.65;;
20044;SDS011;10183;47.808;9.476;2024-02-15T14:37:47;38.90;;;34.53;;